sensor_id;sensor_type;location;lat;lon;timestamp;temperature;humidity
6186;DHT22;3126;52.738;8.316;2023-11-18T00:48:22;2.10;99.90
6186;DHT22;3126;52.738;8.316;2023-11-18T00:53:23;1.90;99.90
6186;DHT22;3126;52.738;8.316;2023-11-18T00:58:24;1.70;99.90
6186;DHT22;3126;52.738;8.316;2023-11-18T01:03:25;1.70;99.90
6186;DHT22;3126;52.738;8.316;2023-11-18T01:08:25;1.70;99.90
6186;DHT22;3126;52.738;8.316;2023-11-18T01:13:26;1.80;99.90
6186;DHT22;3126;52.738;8.316;2023-11-18T01:18:27;1.80;99.90
6186;DHT22;3126;52.738;8.316;2023-11-18T01:23:27;1.90;99.90
6186;DHT22;3126;52.738;8.316;2023-11-18T01:28:28;2.00;99.90
6186;DHT22;3126;52.738;8.316;2023-11-18T01:33:30;2.00;99.90
6186;DHT22;3126;52.738;8.316;2023-11-18T01:38:32;2.00;99.90
6186;DHT22;3126;52.738;8.316;2023-11-18T01:43:33;2.10;99.90
6186;DHT22;3126;52.738;8.316;2023-11-18T01:48:34;2.20;99.90
6186;DHT22;3126;52.738;8.316;2023-11-18T01:53:36;2.20;99.90
6186;DHT22;3126;52.738;8.316;2023-11-18T01:58:37;2.10;99.90
6186;DHT22;3126;52.738;8.316;2023-11-18T02:03:38;2.10;99.90
6186;DHT22;3126;52.738;8.316;2023-11-18T02:08:42;1.90;99.90
6186;DHT22;3126;52.738;8.316;2023-11-18T02:13:47;1.80;99.90
6186;DHT22;3126;52.738;8.316;2023-11-18T02:18:48;1.60;99.90
6186;DHT22;3126;52.738;8.316;2023-11-18T02:23:49;1.40;99.90
6186;DHT22;3126;52.738;8.316;2023-11-18T02:28:51;1.40;99.90
6186;DHT22;3126;52.738;8.316;2023-11-18T02:34:02;1.70;99.90
6186;DHT22;3126;52.738;8.316;2023-11-18T02:39:11;1.30;99.90
6186;DHT22;3126;52.738;8.316;2023-11-18T02:44:17;1.20;99.90
6186;DHT22;3126;52.738;8.316;2023-11-18T02:49:18;1.20;99.90
6186;DHT22;3126;52.738;8.316;2023-11-18T08:51:10;1.10;99.90
6186;DHT22;3126;52.738;8.316;2023-11-18T08:56:12;1.60;99.90
6186;DHT22;3126;52.738;8.316;2023-11-18T09:06:17;1.90;99.90
6186;DHT22;3126;52.738;8.316;2023-11-18T09:11:19;2.20;99.90
6186;DHT22;3126;52.738;8.316;2023-11-18T09:16:20;2.40;99.90
6186;DHT22;3126;52.738;8.316;2023-11-18T09:36:33;2.60;99.90
6186;DHT22;3126;52.738;8.316;2023-11-18T09:41:34;3.30;99.90
6186;DHT22;3126;52.738;8.316;2023-11-18T09:46:36;3.20;99.90
6186;DHT22;3126;52.738;8.316;2023-11-18T09:51:42;3.10;99.90
6186;DHT22;3126;52.738;8.316;2023-11-18T09:57:06;3.10;99.90
6186;DHT22;3126;52.738;8.316;2023-11-18T10:02:14;3.10;99.90
6186;DHT22;3126;52.738;8.316;2023-11-18T10:07:15;3.20;99.90
6186;DHT22;3126;52.738;8.316;2023-11-18T10:12:19;3.30;99.90
6186;DHT22;3126;52.738;8.316;2023-11-18T10:17:24;3.40;99.90
6186;DHT22;3126;52.738;8.316;2023-11-18T10:22:28;3.50;99.90
6186;DHT22;3126;52.738;8.316;2023-11-18T10:27:30;3.60;99.90
6186;DHT22;3126;52.738;8.316;2023-11-18T10:32:32;3.80;99.90
6186;DHT22;3126;52.738;8.316;2023-11-18T10:37:35;4.00;99.90
6186;DHT22;3126;52.738;8.316;2023-11-18T10:42:43;4.20;99.90
6186;DHT22;3126;52.738;8.316;2023-11-18T10:47:49;4.30;99.90
6186;DHT22;3126;52.738;8.316;2023-11-18T10:52:50;4.40;99.90
6186;DHT22;3126;52.738;8.316;2023-11-18T10:57:51;4.50;99.90
6186;DHT22;3126;52.738;8.316;2023-11-18T11:02:59;4.60;99.90
6186;DHT22;3126;52.738;8.316;2023-11-18T11:08:01;4.70;99.90
6186;DHT22;3126;52.738;8.316;2023-11-18T11:13:05;4.90;99.90
6186;DHT22;3126;52.738;8.316;2023-11-18T11:18:08;5.00;99.90
6186;DHT22;3126;52.738;8.316;2023-11-18T11:28:22;5.00;99.90
6186;DHT22;3126;52.738;8.316;2023-11-18T11:38:33;5.10;99.90
6186;DHT22;3126;52.738;8.316;2023-11-18T12:50:41;5.20;99.90
6186;DHT22;3126;52.738;8.316;2023-11-18T12:55:44;5.10;99.90
6186;DHT22;3126;52.738;8.316;2023-11-18T13:00:45;5.20;99.90
6186;DHT22;3126;52.738;8.316;2023-11-18T13:05:46;5.20;99.90
6186;DHT22;3126;52.738;8.316;2023-11-18T13:10:47;5.20;99.90
6186;DHT22;3126;52.738;8.316;2023-11-18T13:15:48;5.20;99.90
6186;DHT22;3126;52.738;8.316;2023-11-18T13:20:54;5.20;99.90
6186;DHT22;3126;52.738;8.316;2023-11-18T13:25:57;5.20;99.90
6186;DHT22;3126;52.738;8.316;2023-11-18T13:31:00;5.30;99.90
6186;DHT22;3126;52.738;8.316;2023-11-18T13:36:01;5.20;99.90
6186;DHT22;3126;52.738;8.316;2023-11-18T13:41:05;5.20;99.90
6186;DHT22;3126;52.738;8.316;2023-11-18T13:46:12;5.20;99.90
6186;DHT22;3126;52.738;8.316;2023-11-18T13:51:13;5.20;99.90
6186;DHT22;3126;52.738;8.316;2023-11-18T13:56:15;5.20;99.90
6186;DHT22;3126;52.738;8.316;2023-11-18T14:01:20;5.10;99.90
6186;DHT22;3126;52.738;8.316;2023-11-18T14:06:22;5.00;99.90
6186;DHT22;3126;52.738;8.316;2023-11-18T14:11:23;5.00;99.90
6186;DHT22;3126;52.738;8.316;2023-11-18T14:16:24;4.90;99.90
6186;DHT22;3126;52.738;8.316;2023-11-18T14:21:26;4.90;99.90
6186;DHT22;3126;52.738;8.316;2023-11-18T14:26:27;4.80;99.90
6186;DHT22;3126;52.738;8.316;2023-11-18T14:31:27;4.80;99.90
6186;DHT22;3126;52.738;8.316;2023-11-18T14:36:29;4.90;99.90
6186;DHT22;3126;52.738;8.316;2023-11-18T14:41:31;4.80;99.90
6186;DHT22;3126;52.738;8.316;2023-11-18T14:46:31;4.80;99.90
6186;DHT22;3126;52.738;8.316;2023-11-18T14:51:32;4.80;99.90
6186;DHT22;3126;52.738;8.316;2023-11-18T14:56:32;4.80;99.90
6186;DHT22;3126;52.738;8.316;2023-11-18T15:01:35;4.80;99.90
6186;DHT22;3126;52.738;8.316;2023-11-18T15:06:36;4.80;99.90
6186;DHT22;3126;52.738;8.316;2023-11-18T15:11:36;4.70;99.90
6186;DHT22;3126;52.738;8.316;2023-11-18T15:16:37;4.70;99.90
6186;DHT22;3126;52.738;8.316;2023-11-18T15:21:38;4.70;99.90
6186;DHT22;3126;52.738;8.316;2023-11-18T15:26:38;4.70;99.90
6186;DHT22;3126;52.738;8.316;2023-11-18T15:31:39;4.70;99.90
6186;DHT22;3126;52.738;8.316;2023-11-18T15:36:41;4.70;99.90
6186;DHT22;3126;52.738;8.316;2023-11-18T15:41:43;4.70;99.90
6186;DHT22;3126;52.738;8.316;2023-11-18T15:46:47;4.70;99.90
6186;DHT22;3126;52.738;8.316;2023-11-18T15:51:48;4.70;99.90
6186;DHT22;3126;52.738;8.316;2023-11-18T15:56:49;4.70;99.90
6186;DHT22;3126;52.738;8.316;2023-11-18T16:01:49;4.70;99.90
6186;DHT22;3126;52.738;8.316;2023-11-18T16:06:50;4.70;99.90
6186;DHT22;3126;52.738;8.316;2023-11-18T16:11:50;4.70;99.90
6186;DHT22;3126;52.738;8.316;2023-11-18T16:16:51;4.70;99.90
6186;DHT22;3126;52.738;8.316;2023-11-18T16:21:51;4.70;99.90
6186;DHT22;3126;52.738;8.316;2023-11-18T16:26:53;4.70;99.90
6186;DHT22;3126;52.738;8.316;2023-11-18T16:31:54;4.80;99.90
6186;DHT22;3126;52.738;8.316;2023-11-18T16:36:54;4.80;99.90
6186;DHT22;3126;52.738;8.316;2023-11-18T16:41:57;4.80;99.90
6186;DHT22;3126;52.738;8.316;2023-11-18T16:46:57;4.80;99.90
6186;DHT22;3126;52.738;8.316;2023-11-18T16:51:58;4.80;99.90
6186;DHT22;3126;52.738;8.316;2023-11-18T16:57:00;4.80;99.90
6186;DHT22;3126;52.738;8.316;2023-11-18T17:02:00;4.80;99.90
6186;DHT22;3126;52.738;8.316;2023-11-18T17:07:01;4.80;99.90
6186;DHT22;3126;52.738;8.316;2023-11-18T17:12:02;4.80;99.90
6186;DHT22;3126;52.738;8.316;2023-11-18T17:17:03;4.80;99.90
6186;DHT22;3126;52.738;8.316;2023-11-18T17:22:04;4.80;99.90
6186;DHT22;3126;52.738;8.316;2023-11-18T17:27:05;4.80;99.90
6186;DHT22;3126;52.738;8.316;2023-11-18T17:32:07;4.80;99.90
6186;DHT22;3126;52.738;8.316;2023-11-18T17:37:07;4.90;99.90
6186;DHT22;3126;52.738;8.316;2023-11-18T17:42:08;4.90;99.90
6186;DHT22;3126;52.738;8.316;2023-11-18T17:47:09;4.90;99.90
6186;DHT22;3126;52.738;8.316;2023-11-18T17:52:11;4.90;99.90
6186;DHT22;3126;52.738;8.316;2023-11-18T17:57:11;4.90;99.90
6186;DHT22;3126;52.738;8.316;2023-11-18T18:02:12;4.90;99.90
6186;DHT22;3126;52.738;8.316;2023-11-18T18:07:13;4.90;99.90
6186;DHT22;3126;52.738;8.316;2023-11-18T18:12:13;4.90;99.90
6186;DHT22;3126;52.738;8.316;2023-11-18T18:17:14;5.00;99.90
6186;DHT22;3126;52.738;8.316;2023-11-18T18:22:14;5.00;99.90
6186;DHT22;3126;52.738;8.316;2023-11-18T18:27:15;5.00;99.90
6186;DHT22;3126;52.738;8.316;2023-11-18T18:32:17;5.00;99.90
6186;DHT22;3126;52.738;8.316;2023-11-18T18:37:18;5.00;99.90
6186;DHT22;3126;52.738;8.316;2023-11-18T18:42:19;5.00;99.90
6186;DHT22;3126;52.738;8.316;2023-11-18T18:47:20;5.00;99.90
6186;DHT22;3126;52.738;8.316;2023-11-18T18:52:21;5.10;99.90
6186;DHT22;3126;52.738;8.316;2023-11-18T18:57:22;5.00;99.90
6186;DHT22;3126;52.738;8.316;2023-11-18T19:02:23;5.00;99.90
6186;DHT22;3126;52.738;8.316;2023-11-18T19:07:24;5.00;99.90
6186;DHT22;3126;52.738;8.316;2023-11-18T19:12:29;5.00;99.90
6186;DHT22;3126;52.738;8.316;2023-11-18T19:17:29;5.00;99.90
6186;DHT22;3126;52.738;8.316;2023-11-18T19:22:30;5.00;99.90
6186;DHT22;3126;52.738;8.316;2023-11-18T19:27:31;5.10;99.90
6186;DHT22;3126;52.738;8.316;2023-11-18T19:32:32;5.10;99.90
6186;DHT22;3126;52.738;8.316;2023-11-18T19:37:32;5.10;99.90
6186;DHT22;3126;52.738;8.316;2023-11-18T19:42:33;5.10;99.90
6186;DHT22;3126;52.738;8.316;2023-11-18T19:47:34;5.20;99.90
6186;DHT22;3126;52.738;8.316;2023-11-18T20:22:47;6.10;99.90
6186;DHT22;3126;52.738;8.316;2023-11-18T20:27:50;5.50;99.90
6186;DHT22;3126;52.738;8.316;2023-11-18T20:32:51;5.50;99.90
6186;DHT22;3126;52.738;8.316;2023-11-18T20:37:52;5.60;99.90
6186;DHT22;3126;52.738;8.316;2023-11-18T21:02:57;5.60;99.90
6186;DHT22;3126;52.738;8.316;2023-11-18T21:07:58;5.80;99.90
6186;DHT22;3126;52.738;8.316;2023-11-18T21:12:58;5.90;99.90
6186;DHT22;3126;52.738;8.316;2023-11-18T21:17:59;5.90;99.90
6186;DHT22;3126;52.738;8.316;2023-11-18T21:22:59;6.00;99.90
6186;DHT22;3126;52.738;8.316;2023-11-18T21:28:00;6.00;99.90
6186;DHT22;3126;52.738;8.316;2023-11-18T21:48:09;6.90;99.90
6186;DHT22;3126;52.738;8.316;2023-11-18T21:53:10;6.30;99.90
6186;DHT22;3126;52.738;8.316;2023-11-18T21:58:10;6.30;99.90
6186;DHT22;3126;52.738;8.316;2023-11-18T22:03:12;6.30;99.90
6186;DHT22;3126;52.738;8.316;2023-11-18T22:08:12;6.40;99.90
6186;DHT22;3126;52.738;8.316;2023-11-18T22:13:19;6.30;99.90
6186;DHT22;3126;52.738;8.316;2023-11-18T22:18:19;6.50;99.90
6186;DHT22;3126;52.738;8.316;2023-11-18T22:23:22;6.50;99.90
6186;DHT22;3126;52.738;8.316;2023-11-18T22:28:23;6.50;99.90
6186;DHT22;3126;52.738;8.316;2023-11-18T22:33:23;6.60;99.90
6186;DHT22;3126;52.738;8.316;2023-11-18T22:43:25;7.40;99.90
6186;DHT22;3126;52.738;8.316;2023-11-18T22:48:26;6.90;99.90
6186;DHT22;3126;52.738;8.316;2023-11-18T22:53:27;6.90;99.90
6186;DHT22;3126;52.738;8.316;2023-11-18T23:03:28;7.20;99.90
